createdAt,value
2022-10-01T00:00:22.763Z,12.18
2022-10-01T00:01:21.867Z,12.18
2022-10-01T00:02:21.868Z,12.17
2022-10-01T00:03:21.902Z,12.17
2022-10-01T00:04:22.740Z,12.17
2022-10-01T00:05:21.954Z,12.17
2022-10-01T00:06:21.997Z,12.17
2022-10-01T00:07:22.006Z,12.17
2022-10-01T00:08:22.046Z,12.20
2022-10-01T00:09:22.090Z,12.21
2022-10-01T00:10:22.156Z,12.20
2022-10-01T00:11:22.192Z,12.21
2022-10-01T00:12:22.178Z,12.18
2022-10-01T00:13:22.186Z,12.15
2022-10-01T00:14:22.197Z,12.18
2022-10-01T00:15:22.218Z,12.20
2022-10-01T00:16:22.322Z,12.17
2022-10-01T00:17:22.238Z,12.15
2022-10-01T00:18:22.250Z,12.12
2022-10-01T00:19:22.278Z,12.11
2022-10-01T00:20:22.291Z,12.11
2022-10-01T00:21:22.279Z,12.10
2022-10-01T00:22:22.301Z,12.10
2022-10-01T00:23:22.361Z,12.10
2022-10-01T00:24:22.413Z,12.10
2022-10-01T00:25:22.470Z,12.10
2022-10-01T00:26:22.559Z,12.08
2022-10-01T00:27:22.470Z,12.10
2022-10-01T00:28:22.568Z,12.08
2022-10-01T00:29:22.494Z,12.07
2022-10-01T00:30:22.543Z,12.08
2022-10-01T00:31:22.674Z,12.05
2022-10-01T00:32:22.652Z,12.03
2022-10-01T00:33:22.674Z,12.08
2022-10-01T00:34:22.754Z,12.10
2022-10-01T00:35:22.793Z,12.08
2022-10-01T00:36:22.852Z,12.07
2022-10-01T00:37:22.904Z,12.03
2022-10-01T00:38:22.963Z,12.02
2022-10-01T00:39:23.015Z,12.03
2022-10-01T00:40:23.073Z,12.11
2022-10-01T00:41:23.115Z,12.12
2022-10-01T00:42:23.184Z,12.10
2022-10-01T00:43:23.157Z,12.08
2022-10-01T00:44:23.168Z,12.10
2022-10-01T00:45:23.236Z,12.10
2022-10-01T00:46:23.244Z,12.11
2022-10-01T00:47:23.247Z,12.15
2022-10-01T00:48:23.216Z,12.12
2022-10-01T00:49:23.286Z,12.12
2022-10-01T00:50:23.358Z,12.12
2022-10-01T00:51:23.407Z,12.11
2022-10-01T00:52:23.471Z,12.12
2022-10-01T00:53:23.448Z,12.15
2022-10-01T00:54:23.499Z,12.17
2022-10-01T00:55:23.549Z,12.15
2022-10-01T00:56:23.579Z,12.18
2022-10-01T00:57:23.608Z,12.18
2022-10-01T00:58:23.600Z,12.21
2022-10-01T00:59:23.591Z,12.25
2022-10-01T01:00:23.643Z,12.25
2022-10-01T01:01:23.701Z,12.25
2022-10-01T01:02:23.742Z,12.21
2022-10-01T01:03:23.721Z,12.21
2022-10-01T01:04:23.732Z,12.21
2022-10-01T01:05:23.752Z,12.23
2022-10-01T01:06:23.771Z,12.32
2022-10-01T01:07:23.792Z,12.30
2022-10-01T01:08:23.861Z,12.32
2022-10-01T01:09:24.563Z,12.32
2022-10-01T01:10:23.969Z,12.33
2022-10-01T01:11:24.073Z,12.35
2022-10-01T01:12:24.051Z,12.36
2022-10-01T01:13:24.050Z,12.35
2022-10-01T01:14:24.114Z,12.36
2022-10-01T01:15:24.194Z,12.35
2022-10-01T01:16:24.977Z,12.33
2022-10-01T01:17:24.223Z,12.33
2022-10-01T01:18:24.935Z,12.35
2022-10-01T01:19:24.316Z,12.33
2022-10-01T01:20:24.996Z,12.35
2022-10-01T01:21:24.367Z,12.40
2022-10-01T01:22:24.368Z,12.45
2022-10-01T01:23:26.097Z,12.48
2022-10-01T01:24:25.364Z,12.45
2022-10-01T01:25:24.426Z,12.43
2022-10-01T01:26:24.579Z,12.43
2022-10-01T01:27:25.441Z,12.47
2022-10-01T01:28:24.637Z,12.48
2022-10-01T01:29:24.839Z,12.50
2022-10-01T01:30:25.979Z,12.55
2022-10-01T01:31:24.715Z,12.55
2022-10-01T01:32:26.439Z,12.57
2022-10-01T01:33:24.649Z,12.55
2022-10-01T01:34:25.659Z,12.53
2022-10-01T01:35:24.749Z,12.54
2022-10-01T01:36:24.777Z,12.55
2022-10-01T01:37:24.803Z,12.53
2022-10-01T01:38:25.750Z,12.51
2022-10-01T01:39:25.662Z,12.48
2022-10-01T01:40:24.821Z,12.50
2022-10-01T01:41:24.840Z,12.48
2022-10-01T01:42:24.861Z,12.47
2022-10-01T01:43:24.891Z,12.53
2022-10-01T01:44:24.882Z,12.53
2022-10-01T01:45:24.912Z,12.53
2022-10-01T01:46:24.983Z,12.53
2022-10-01T01:47:25.009Z,12.50
2022-10-01T01:48:24.993Z,12.48
2022-10-01T01:49:25.054Z,12.48
2022-10-01T01:50:25.129Z,12.51
2022-10-01T01:51:25.235Z,12.51
2022-10-01T01:52:25.226Z,12.51
2022-10-01T01:53:25.275Z,12.54
2022-10-01T01:54:25.324Z,12.55
2022-10-01T01:55:25.345Z,12.53
2022-10-01T01:56:25.346Z,12.51
2022-10-01T01:57:25.357Z,12.55
2022-10-01T01:58:25.366Z,12.53
2022-10-01T01:59:25.413Z,12.50
2022-10-01T02:00:25.457Z,12.51
2022-10-01T02:01:25.563Z,12.51
2022-10-01T02:02:25.558Z,12.53
2022-10-01T02:03:25.487Z,12.54
2022-10-01T02:04:25.507Z,12.57
2022-10-01T02:05:25.575Z,12.57
2022-10-01T02:06:25.608Z,12.61
2022-10-01T02:07:25.649Z,12.61
2022-10-01T02:08:25.658Z,12.65
2022-10-01T02:09:25.665Z,12.72
2022-10-01T02:10:25.660Z,12.73
2022-10-01T02:11:25.650Z,12.72
2022-10-01T02:12:25.671Z,12.72
2022-10-01T02:13:25.722Z,12.70
2022-10-01T02:14:25.722Z,12.68
2022-10-01T02:15:25.782Z,12.66
2022-10-01T02:16:25.927Z,12.69
2022-10-01T02:17:25.868Z,12.73
2022-10-01T02:18:25.863Z,12.73
2022-10-01T02:19:25.902Z,12.73
2022-10-01T02:20:25.905Z,12.73
2022-10-01T02:21:25.922Z,12.73
2022-10-01T02:22:25.935Z,12.75
2022-10-01T02:23:25.913Z,12.76
2022-10-01T02:24:25.983Z,12.75
2022-10-01T02:25:25.904Z,12.76
2022-10-01T02:26:25.935Z,12.78
2022-10-01T02:27:25.942Z,12.76
2022-10-01T02:28:26.019Z,12.78
2022-10-01T02:29:25.926Z,12.76
2022-10-01T02:30:26.008Z,12.76
2022-10-01T02:31:26.079Z,12.75
2022-10-01T02:32:26.069Z,12.76
2022-10-01T02:33:26.105Z,12.76
2022-10-01T02:34:26.215Z,12.73
2022-10-01T02:35:26.236Z,12.78
2022-10-01T02:36:26.315Z,12.80
2022-10-01T02:37:26.346Z,12.80
2022-10-01T02:38:26.347Z,12.78
2022-10-01T02:39:26.378Z,12.75
2022-10-01T02:40:26.429Z,12.75
2022-10-01T02:41:26.458Z,12.72
2022-10-01T02:42:26.489Z,12.66
2022-10-01T02:43:26.528Z,12.65
2022-10-01T02:44:26.518Z,12.58
2022-10-01T02:45:26.666Z,12.57
2022-10-01T02:46:26.560Z,12.55
2022-10-01T02:47:26.602Z,12.44
2022-10-01T02:48:26.641Z,12.33
2022-10-01T02:49:30.562Z,12.23
2022-10-01T02:50:26.780Z,12.08
2022-10-01T02:51:26.762Z,12.00
2022-10-01T02:52:26.799Z,11.89
2022-10-01T02:53:26.812Z,11.83
2022-10-01T02:54:26.998Z,11.76
2022-10-01T02:55:26.921Z,11.63
2022-10-01T02:56:26.982Z,11.56
2022-10-01T02:57:27.000Z,11.55
2022-10-01T02:58:26.993Z,11.49
2022-10-01T02:59:27.013Z,11.40
2022-10-01T03:00:27.056Z,11.31
2022-10-01T03:01:27.204Z,11.25
2022-10-01T03:02:27.150Z,11.20
2022-10-01T03:03:27.134Z,11.20
2022-10-01T03:04:27.135Z,11.13
2022-10-01T03:05:27.184Z,11.08
2022-10-01T03:06:27.220Z,11.01
2022-10-01T03:07:27.277Z,10.97
2022-10-01T03:08:27.336Z,10.92
2022-10-01T03:09:27.388Z,10.86
2022-10-01T03:10:27.376Z,10.80
2022-10-01T03:11:27.426Z,10.76
2022-10-01T03:12:27.417Z,10.72
2022-10-01T03:13:27.446Z,10.69
2022-10-01T03:14:27.497Z,10.67
2022-10-01T03:15:27.549Z,10.64
2022-10-01T03:16:27.651Z,10.59
2022-10-01T03:17:27.667Z,10.53
2022-10-01T03:18:27.635Z,10.49
2022-10-01T03:19:27.627Z,10.46
2022-10-01T03:20:27.677Z,10.43
2022-10-01T03:21:27.688Z,10.39
2022-10-01T03:22:27.696Z,10.34
2022-10-01T03:23:27.746Z,10.34
2022-10-01T03:24:27.798Z,10.34
2022-10-01T03:25:27.847Z,10.31
2022-10-01T03:26:27.914Z,10.28
2022-10-01T03:27:27.959Z,10.25
2022-10-01T03:28:28.053Z,10.25
2022-10-01T03:29:28.051Z,10.23
2022-10-01T03:30:28.101Z,10.23
2022-10-01T03:31:28.215Z,10.20
2022-10-01T03:32:28.191Z,10.18
2022-10-01T03:33:28.253Z,10.15
2022-10-01T03:34:28.302Z,10.10
2022-10-01T03:35:28.353Z,10.10
2022-10-01T03:36:28.412Z,10.09
2022-10-01T03:37:28.385Z,10.06
2022-10-01T03:38:28.437Z,10.05
2022-10-01T03:39:28.421Z,10.03
2022-10-01T03:40:28.473Z,10.02
2022-10-01T03:41:28.533Z,10.02
2022-10-01T03:42:28.553Z,10.00
2022-10-01T03:43:28.553Z,9.97
2022-10-01T03:44:28.564Z,9.99
2022-10-01T03:45:28.596Z,9.99
2022-10-01T03:46:28.617Z,9.95
2022-10-01T03:47:28.625Z,9.95
2022-10-01T03:48:28.625Z,9.94
2022-10-01T03:49:28.646Z,9.94
2022-10-01T03:50:28.662Z,9.91
2022-10-01T03:51:28.666Z,9.91
2022-10-01T03:52:28.669Z,9.91
2022-10-01T03:53:29.606Z,9.88
2022-10-01T03:54:28.727Z,9.85
2022-10-01T03:55:28.737Z,9.87
2022-10-01T03:56:28.755Z,9.88
2022-10-01T03:57:28.750Z,9.87
2022-10-01T03:58:28.788Z,9.85
2022-10-01T03:59:28.828Z,9.85
2022-10-01T04:00:28.878Z,9.85
2022-10-01T04:01:28.932Z,9.87
2022-10-01T04:02:29.017Z,9.87
2022-10-01T04:03:28.919Z,9.85
2022-10-01T04:04:28.998Z,9.85
2022-10-01T04:05:28.956Z,9.85
2022-10-01T04:06:28.951Z,9.87
2022-10-01T04:07:28.979Z,9.84
2022-10-01T04:08:28.989Z,9.82
2022-10-01T04:09:28.991Z,9.84
2022-10-01T04:10:29.072Z,9.84
2022-10-01T04:11:29.082Z,9.84
2022-10-01T04:12:29.092Z,9.85
2022-10-01T04:13:29.110Z,9.85
2022-10-01T04:14:29.115Z,9.82
2022-10-01T04:15:29.142Z,9.82
2022-10-01T04:16:29.173Z,9.84
2022-10-01T04:17:29.183Z,9.84
2022-10-01T04:18:29.205Z,9.84
2022-10-01T04:19:29.203Z,9.82
2022-10-01T04:20:29.208Z,9.84
2022-10-01T04:21:29.273Z,9.82
2022-10-01T04:22:29.326Z,9.81
2022-10-01T04:23:29.332Z,9.81
2022-10-01T04:24:29.355Z,9.82
2022-10-01T04:25:29.434Z,9.82
2022-10-01T04:26:29.506Z,9.82
2022-10-01T04:27:29.510Z,9.82
2022-10-01T04:28:29.636Z,9.85
2022-10-01T04:29:29.505Z,9.82
2022-10-01T04:30:29.557Z,9.84
2022-10-01T04:31:29.620Z,9.81
2022-10-01T04:32:29.592Z,9.84
2022-10-01T04:33:29.597Z,9.82
2022-10-01T04:34:29.587Z,9.81
2022-10-01T04:35:29.608Z,9.82
2022-10-01T04:36:29.688Z,9.82
2022-10-01T04:37:29.687Z,9.82
2022-10-01T04:38:29.706Z,9.82
2022-10-01T04:39:29.721Z,9.81
2022-10-01T04:40:29.729Z,9.82
2022-10-01T04:41:29.758Z,9.84
2022-10-01T04:42:29.809Z,9.81
2022-10-01T04:43:29.818Z,9.80
2022-10-01T04:44:29.819Z,9.81
2022-10-01T04:45:29.830Z,9.81
2022-10-01T04:46:30.003Z,9.82
2022-10-01T04:47:29.859Z,9.81
2022-10-01T04:48:29.872Z,9.81
2022-10-01T04:49:29.882Z,9.81
2022-10-01T04:50:29.920Z,9.82
2022-10-01T04:51:29.910Z,9.80
2022-10-01T04:52:29.930Z,9.81
2022-10-01T04:53:29.972Z,9.77
2022-10-01T04:54:30.011Z,9.80
2022-10-01T04:55:30.021Z,9.77
2022-10-01T04:56:30.031Z,9.80
2022-10-01T04:57:30.041Z,9.76
2022-10-01T04:58:30.063Z,9.77
2022-10-01T04:59:30.050Z,9.76
2022-10-01T05:00:30.075Z,9.76
2022-10-01T05:01:31.179Z,9.76
2022-10-01T05:02:30.067Z,9.76
2022-10-01T05:03:30.764Z,9.80
2022-10-01T05:04:30.153Z,9.76
2022-10-01T05:05:30.386Z,9.77
2022-10-01T05:06:30.144Z,9.80
2022-10-01T05:07:30.211Z,9.77
2022-10-01T05:08:30.916Z,9.76
2022-10-01T05:09:30.207Z,9.77
2022-10-01T05:10:30.208Z,9.76
2022-10-01T05:11:30.295Z,9.77
2022-10-01T05:12:30.317Z,9.74
2022-10-01T05:13:30.582Z,9.74
2022-10-01T05:14:30.288Z,9.76
2022-10-01T05:15:30.977Z,9.76
2022-10-01T05:16:31.380Z,9.80
2022-10-01T05:17:31.087Z,9.77
2022-10-01T05:18:31.286Z,9.74
2022-10-01T05:19:30.401Z,9.76
2022-10-01T05:20:30.401Z,9.76
2022-10-01T05:21:30.485Z,9.74
2022-10-01T05:22:30.448Z,9.76
2022-10-01T05:23:30.498Z,9.74
2022-10-01T05:24:30.509Z,9.76
2022-10-01T05:25:30.539Z,9.77
2022-10-01T05:26:30.578Z,9.77
2022-10-01T05:27:30.579Z,9.73
2022-10-01T05:28:30.703Z,9.72
2022-10-01T05:29:31.357Z,9.73
2022-10-01T05:30:30.651Z,9.73
2022-10-01T05:31:30.874Z,9.73
2022-10-01T05:32:31.410Z,9.73
2022-10-01T05:33:30.731Z,9.76
2022-10-01T05:34:30.769Z,9.73
2022-10-01T05:35:30.821Z,9.74
2022-10-01T05:36:30.921Z,9.74
2022-10-01T05:37:30.970Z,9.73
2022-10-01T05:38:30.952Z,9.73
2022-10-01T05:39:31.000Z,9.73
2022-10-01T05:40:31.032Z,9.74
2022-10-01T05:41:31.135Z,9.76
2022-10-01T05:42:31.783Z,9.77
2022-10-01T05:43:31.204Z,9.76
2022-10-01T05:44:31.183Z,9.80
2022-10-01T05:45:31.361Z,9.80
2022-10-01T05:46:31.282Z,9.81
2022-10-01T05:47:31.954Z,9.82
2022-10-01T05:48:32.284Z,9.82
2022-10-01T05:49:31.334Z,9.82
2022-10-01T05:50:32.304Z,9.84
2022-10-01T05:51:31.624Z,9.85
2022-10-01T05:52:31.404Z,9.87
2022-10-01T05:53:32.116Z,9.88
2022-10-01T05:54:31.496Z,9.90
2022-10-01T05:55:32.483Z,9.91
2022-10-01T05:56:31.537Z,9.92
2022-10-01T05:57:31.547Z,9.92
2022-10-01T05:58:31.537Z,9.94
2022-10-01T05:59:32.115Z,9.97
2022-10-01T06:00:31.667Z,9.95
2022-10-01T06:01:32.075Z,9.99
2022-10-01T06:02:31.840Z,9.99
2022-10-01T06:03:31.739Z,9.99
2022-10-01T06:04:31.730Z,10.00
2022-10-01T06:05:31.720Z,10.00
2022-10-01T06:06:31.768Z,10.02
2022-10-01T06:07:31.831Z,10.03
2022-10-01T06:08:31.878Z,10.05
2022-10-01T06:09:31.949Z,10.06
2022-10-01T06:10:32.010Z,10.07
2022-10-01T06:11:32.477Z,10.07
2022-10-01T06:12:32.101Z,10.09
2022-10-01T06:13:32.176Z,10.07
2022-10-01T06:14:32.238Z,10.09
2022-10-01T06:15:32.301Z,10.10
2022-10-01T06:16:32.356Z,10.12
2022-10-01T06:17:32.322Z,10.13
2022-10-01T06:18:32.391Z,10.15
2022-10-01T06:19:32.391Z,10.13
2022-10-01T06:20:32.392Z,10.17
2022-10-01T06:21:32.693Z,10.21
2022-10-01T06:22:32.414Z,10.21
2022-10-01T06:23:32.500Z,10.20
2022-10-01T06:24:32.526Z,10.21
2022-10-01T06:25:32.583Z,10.21
2022-10-01T06:26:32.574Z,10.24
2022-10-01T06:27:32.574Z,10.24
2022-10-01T06:28:32.761Z,10.24
2022-10-01T06:29:32.624Z,10.24
2022-10-01T06:30:32.684Z,10.25
2022-10-01T06:31:33.140Z,10.25
2022-10-01T06:32:34.953Z,10.27
2022-10-01T06:33:32.765Z,10.30
2022-10-01T06:34:32.816Z,10.30
2022-10-01T06:35:32.905Z,10.28
2022-10-01T06:36:32.944Z,10.30
2022-10-01T06:37:32.945Z,10.30
2022-10-01T06:38:32.986Z,10.33
2022-10-01T06:39:33.060Z,10.33
2022-10-01T06:40:33.119Z,10.33
2022-10-01T06:41:33.455Z,10.33
2022-10-01T06:42:33.117Z,10.34
2022-10-01T06:43:33.097Z,10.33
2022-10-01T06:44:33.138Z,10.36
2022-10-01T06:45:33.282Z,10.36
2022-10-01T06:46:33.237Z,10.38
2022-10-01T06:47:33.239Z,10.39
2022-10-01T06:48:33.259Z,10.41
2022-10-01T06:49:33.287Z,10.42
2022-10-01T06:50:33.352Z,10.43
2022-10-01T06:51:33.627Z,10.43
2022-10-01T06:52:33.398Z,10.43
2022-10-01T06:53:33.440Z,10.43
2022-10-01T06:54:33.510Z,10.45
2022-10-01T06:55:33.521Z,10.43
2022-10-01T06:56:33.581Z,10.46
2022-10-01T06:57:33.600Z,10.49
2022-10-01T06:58:33.591Z,10.49
2022-10-01T06:59:33.591Z,10.55
2022-10-01T07:00:33.678Z,10.53
2022-10-01T07:01:34.140Z,10.57
2022-10-01T07:02:33.813Z,10.59
2022-10-01T07:03:33.764Z,10.62
2022-10-01T07:04:33.803Z,10.64
2022-10-01T07:05:33.793Z,10.64
2022-10-01T07:06:33.852Z,10.67
2022-10-01T07:07:33.934Z,10.68
2022-10-01T07:08:33.944Z,10.71
2022-10-01T07:09:34.035Z,10.75
2022-10-01T07:10:34.015Z,10.80
2022-10-01T07:11:34.268Z,10.79
2022-10-01T07:12:34.075Z,10.79
2022-10-01T07:13:34.154Z,10.77
2022-10-01T07:14:34.215Z,10.82
2022-10-01T07:15:34.185Z,10.82
2022-10-01T07:16:34.285Z,10.80
2022-10-01T07:17:34.296Z,10.83
2022-10-01T07:18:34.366Z,10.84
2022-10-01T07:19:34.377Z,10.87
2022-10-01T07:20:34.367Z,10.87
2022-10-01T07:21:34.644Z,10.89
2022-10-01T07:22:34.410Z,10.89
2022-10-01T07:23:34.448Z,10.89
2022-10-01T07:24:34.479Z,10.92
2022-10-01T07:25:34.528Z,10.94
2022-10-01T07:26:34.569Z,10.94
2022-10-01T07:27:34.606Z,10.95
2022-10-01T07:28:34.668Z,10.95
2022-10-01T07:29:34.659Z,10.95
2022-10-01T07:30:34.709Z,10.97
2022-10-01T07:31:35.056Z,10.95
2022-10-01T07:32:34.750Z,10.95
2022-10-01T07:33:34.812Z,10.97
2022-10-01T07:34:34.831Z,10.98
2022-10-01T07:35:34.822Z,11.00
2022-10-01T07:36:34.851Z,11.00
2022-10-01T07:37:34.849Z,11.00
2022-10-01T07:38:34.871Z,11.04
2022-10-01T07:39:34.922Z,11.04
2022-10-01T07:40:34.952Z,11.05
2022-10-01T07:41:35.313Z,11.08
2022-10-01T07:42:35.000Z,11.08
2022-10-01T07:43:35.035Z,11.10
2022-10-01T07:44:35.115Z,11.13
2022-10-01T07:45:35.193Z,11.13
2022-10-01T07:46:35.094Z,11.13
2022-10-01T07:47:35.143Z,11.16
2022-10-01T07:48:35.165Z,11.15
2022-10-01T07:49:35.174Z,11.18
2022-10-01T07:50:35.215Z,11.18
2022-10-01T07:51:35.514Z,11.19
2022-10-01T07:52:35.236Z,11.20
2022-10-01T07:53:35.294Z,11.22
2022-10-01T07:54:35.286Z,11.22
2022-10-01T07:55:35.346Z,11.22
2022-10-01T07:56:35.367Z,11.20
2022-10-01T07:57:35.365Z,11.22
2022-10-01T07:58:35.406Z,11.22
2022-10-01T07:59:35.407Z,11.22
2022-10-01T08:00:35.425Z,11.25
2022-10-01T08:01:35.807Z,11.23
2022-10-01T08:02:35.539Z,11.25
2022-10-01T08:03:35.508Z,11.27
2022-10-01T08:04:35.559Z,11.31
2022-10-01T08:05:35.557Z,11.33
2022-10-01T08:06:35.567Z,11.35
2022-10-01T08:07:35.600Z,11.35
2022-10-01T08:08:35.649Z,11.35
2022-10-01T08:09:35.632Z,11.37
2022-10-01T08:10:35.639Z,11.37
2022-10-01T08:11:36.230Z,11.37
2022-10-01T08:12:35.691Z,11.37
2022-10-01T08:13:35.731Z,11.38
2022-10-01T08:14:35.731Z,11.35
2022-10-01T08:15:35.737Z,11.40
2022-10-01T08:16:35.759Z,11.40
2022-10-01T08:17:35.744Z,11.40
2022-10-01T08:18:35.795Z,11.40
2022-10-01T08:19:35.832Z,11.43
2022-10-01T08:20:35.946Z,11.40
2022-10-01T08:21:36.194Z,11.41
2022-10-01T08:22:41.105Z,11.41
2022-10-01T08:23:35.903Z,11.44
2022-10-01T08:24:35.922Z,11.45
2022-10-01T08:25:35.933Z,11.52
2022-10-01T08:26:35.968Z,11.52
2022-10-01T08:27:36.025Z,11.55
2022-10-01T08:28:36.068Z,11.58
2022-10-01T08:29:36.147Z,11.58
2022-10-01T08:30:36.198Z,11.58
2022-10-01T08:31:36.536Z,11.53
2022-10-01T08:32:36.208Z,11.58
2022-10-01T08:33:36.247Z,11.59
2022-10-01T08:34:36.306Z,11.62
2022-10-01T08:35:36.344Z,11.62
2022-10-01T08:36:36.377Z,11.63
2022-10-01T08:37:36.408Z,11.65
2022-10-01T08:38:36.406Z,11.71
2022-10-01T08:39:36.469Z,11.73
2022-10-01T08:40:36.461Z,11.80
2022-10-01T08:41:36.772Z,11.91
2022-10-01T08:42:36.471Z,12.02
2022-10-01T08:43:36.555Z,12.03
2022-10-01T08:44:36.588Z,12.03
2022-10-01T08:45:36.665Z,11.99
2022-10-01T08:46:36.610Z,11.99
2022-10-01T08:47:36.722Z,12.02
2022-10-01T08:48:36.702Z,12.03
2022-10-01T08:49:36.679Z,12.08
2022-10-01T08:50:36.700Z,12.07
2022-10-01T08:51:37.035Z,12.12
2022-10-01T08:52:36.701Z,12.12
2022-10-01T08:53:36.732Z,12.14
2022-10-01T08:54:36.762Z,12.15
2022-10-01T08:55:36.881Z,12.18
2022-10-01T08:56:36.776Z,12.21
2022-10-01T08:57:36.811Z,12.25
2022-10-01T08:58:36.803Z,12.32
2022-10-01T08:59:36.811Z,12.43
2022-10-01T09:00:36.792Z,12.45
2022-10-01T09:01:37.337Z,12.53
2022-10-01T09:02:36.824Z,12.54
2022-10-01T09:03:36.874Z,12.55
2022-10-01T09:04:36.939Z,12.54
2022-10-01T09:05:36.924Z,12.51
2022-10-01T09:06:36.965Z,12.50
2022-10-01T09:07:36.953Z,12.54
2022-10-01T09:08:36.997Z,12.61
2022-10-01T09:09:36.997Z,12.53
2022-10-01T09:10:37.036Z,12.50
2022-10-01T09:11:37.408Z,12.50
2022-10-01T09:12:37.057Z,12.48
2022-10-01T09:13:37.091Z,12.55
2022-10-01T09:14:37.117Z,12.57
2022-10-01T09:15:37.108Z,12.58
2022-10-01T09:16:37.192Z,12.58
2022-10-01T09:17:37.209Z,12.61
2022-10-01T09:18:37.258Z,12.65
2022-10-01T09:19:40.440Z,12.66
2022-10-01T09:20:37.300Z,12.66
2022-10-01T09:21:37.289Z,12.63
2022-10-01T09:22:37.359Z,12.58
2022-10-01T09:23:37.401Z,12.62
2022-10-01T09:24:37.392Z,12.62
2022-10-01T09:25:37.461Z,12.61
2022-10-01T09:26:37.491Z,12.63
2022-10-01T09:27:37.494Z,12.69
2022-10-01T09:28:37.501Z,12.75
2022-10-01T09:29:37.572Z,12.72
2022-10-01T09:30:37.624Z,12.73
2022-10-01T09:31:38.080Z,12.70
2022-10-01T09:32:37.623Z,12.69
2022-10-01T09:33:37.667Z,12.69
2022-10-01T09:34:37.674Z,12.66
2022-10-01T09:35:37.692Z,12.66
2022-10-01T09:36:37.703Z,12.66
2022-10-01T09:37:37.755Z,12.68
2022-10-01T09:38:37.804Z,12.65
2022-10-01T09:39:37.814Z,12.69
2022-10-01T09:40:37.805Z,12.72
2022-10-01T09:41:37.846Z,12.73
2022-10-01T09:42:37.875Z,12.70
2022-10-01T09:43:37.886Z,12.73
2022-10-01T09:44:37.946Z,12.75
2022-10-01T09:45:38.159Z,12.76
2022-10-01T09:46:38.067Z,12.78
2022-10-01T09:47:38.039Z,12.81
2022-10-01T09:48:38.157Z,12.87
2022-10-01T09:49:38.148Z,12.93
2022-10-01T09:50:38.198Z,12.88
2022-10-01T09:51:40.650Z,12.90
2022-10-01T09:52:38.218Z,12.91
2022-10-01T09:53:38.278Z,12.94
2022-10-01T09:54:38.298Z,12.98
2022-10-01T09:55:38.280Z,12.98
2022-10-01T09:56:38.350Z,13.05
2022-10-01T09:57:38.341Z,13.09
2022-10-01T09:58:38.350Z,13.13
2022-10-01T09:59:38.408Z,13.13
2022-10-01T10:00:38.406Z,13.12
2022-10-01T10:01:38.821Z,13.12
2022-10-01T10:02:38.566Z,13.11
2022-10-01T10:03:38.621Z,13.13
2022-10-01T10:04:38.551Z,13.13
2022-10-01T10:05:38.573Z,13.20
2022-10-01T10:06:38.854Z,13.21
2022-10-01T10:07:38.633Z,13.28
2022-10-01T10:08:38.673Z,13.31
2022-10-01T10:09:38.695Z,13.40
2022-10-01T10:10:38.707Z,13.40
2022-10-01T10:11:38.744Z,13.42
2022-10-01T10:12:38.792Z,13.43
2022-10-01T10:13:38.813Z,13.45
2022-10-01T10:14:38.846Z,13.47
2022-10-01T10:15:38.829Z,13.50
2022-10-01T10:16:39.035Z,13.57
2022-10-01T10:17:38.876Z,13.55
2022-10-01T10:18:38.936Z,13.55
2022-10-01T10:19:38.986Z,13.60
2022-10-01T10:20:39.139Z,13.65
2022-10-01T10:21:39.048Z,13.73
2022-10-01T10:22:39.097Z,13.75
2022-10-01T10:23:39.138Z,13.76
2022-10-01T10:24:39.161Z,13.82
2022-10-01T10:25:39.226Z,13.87
2022-10-01T10:26:39.914Z,13.98
2022-10-01T10:27:39.239Z,13.98
2022-10-01T10:28:42.213Z,14.03
2022-10-01T10:29:39.306Z,14.08
2022-10-01T10:30:39.360Z,14.15
2022-10-01T10:31:39.463Z,14.12
2022-10-01T10:32:39.441Z,14.13
2022-10-01T10:33:39.411Z,14.18
2022-10-01T10:34:39.450Z,14.25
2022-10-01T10:35:39.440Z,14.36
2022-10-01T10:36:39.484Z,14.49
2022-10-01T10:37:39.482Z,14.52
2022-10-01T10:38:39.472Z,14.62
2022-10-01T10:39:39.537Z,14.68
2022-10-01T10:40:39.525Z,14.70
2022-10-01T10:41:39.493Z,14.78
2022-10-01T10:42:39.513Z,14.79
2022-10-01T10:43:39.516Z,14.86
2022-10-01T10:44:39.581Z,14.79
2022-10-01T10:45:39.626Z,14.79
2022-10-01T10:46:43.970Z,14.89
2022-10-01T10:47:39.695Z,14.92
2022-10-01T10:48:39.735Z,14.87
2022-10-01T10:49:39.760Z,14.97
2022-10-01T10:50:39.799Z,15.11
2022-10-01T10:51:39.837Z,15.22
2022-10-01T10:52:43.751Z,15.41
2022-10-01T10:53:39.905Z,15.45
2022-10-01T10:54:39.910Z,15.54
2022-10-01T10:55:39.938Z,15.75
2022-10-01T10:56:39.948Z,16.34
2022-10-01T10:57:39.930Z,16.31
2022-10-01T10:58:40.031Z,16.12
2022-10-01T10:59:40.068Z,16.54
2022-10-01T11:00:40.080Z,16.43
2022-10-01T11:01:40.161Z,16.68
2022-10-01T11:02:40.215Z,16.74
2022-10-01T11:03:40.161Z,16.36
2022-10-01T11:04:40.202Z,16.32
2022-10-01T11:05:40.263Z,16.44
2022-10-01T11:06:40.321Z,16.62
2022-10-01T11:07:40.292Z,16.99
2022-10-01T11:08:40.353Z,17.42
2022-10-01T11:09:40.373Z,17.50
2022-10-01T11:10:40.354Z,17.73
2022-10-01T11:11:40.394Z,17.50
2022-10-01T11:12:40.395Z,17.72
2022-10-01T11:13:40.454Z,17.50
2022-10-01T11:14:40.525Z,17.10
2022-10-01T11:15:40.560Z,17.02
2022-10-01T11:16:40.671Z,17.13
2022-10-01T11:17:40.586Z,17.34
2022-10-01T11:18:40.606Z,17.78
2022-10-01T11:19:40.622Z,17.97
2022-10-01T11:20:40.598Z,17.82
2022-10-01T11:21:40.618Z,17.94
2022-10-01T11:22:40.710Z,18.11
2022-10-01T11:23:40.709Z,18.13
2022-10-01T11:24:40.732Z,18.31
2022-10-01T11:25:40.730Z,18.05
2022-10-01T11:26:40.734Z,17.93
2022-10-01T11:27:40.760Z,17.87
2022-10-01T11:28:40.890Z,17.39
2022-10-01T11:29:40.842Z,17.49
2022-10-01T11:30:40.872Z,17.71
2022-10-01T11:31:40.999Z,17.71
2022-10-01T11:32:40.914Z,17.76
2022-10-01T11:33:40.953Z,17.71
2022-10-01T11:34:40.934Z,18.08
2022-10-01T11:35:40.954Z,18.39
2022-10-01T11:36:40.963Z,18.61
2022-10-01T11:37:40.973Z,18.70
2022-10-01T11:38:41.025Z,18.74
2022-10-01T11:39:41.096Z,18.73
2022-10-01T11:40:41.096Z,18.74
2022-10-01T11:41:41.186Z,18.55
2022-10-01T11:42:41.206Z,18.03
2022-10-01T11:43:41.247Z,18.03
2022-10-01T11:44:41.287Z,18.27
2022-10-01T11:45:41.288Z,18.45
2022-10-01T11:46:41.441Z,18.57
2022-10-01T11:47:41.359Z,18.48
2022-10-01T11:48:41.359Z,18.09
2022-10-01T11:49:41.370Z,17.60
2022-10-01T11:50:41.431Z,17.34
2022-10-01T11:51:41.469Z,17.63
2022-10-01T11:52:41.422Z,18.37
2022-10-01T11:53:41.499Z,18.64
2022-10-01T11:54:41.512Z,18.81
2022-10-01T11:55:41.504Z,19.12
2022-10-01T11:56:41.532Z,19.44
2022-10-01T11:57:41.613Z,19.20
2022-10-01T11:58:41.624Z,18.89
2022-10-01T11:59:41.663Z,19.11
2022-10-01T12:00:41.655Z,19.34
2022-10-01T12:01:41.778Z,19.44
2022-10-01T12:02:41.736Z,19.04
2022-10-01T12:03:41.794Z,19.00
2022-10-01T12:04:41.856Z,18.85
2022-10-01T12:05:41.936Z,18.81
2022-10-01T12:06:42.040Z,18.83
2022-10-01T12:07:41.879Z,18.64
2022-10-01T12:08:41.909Z,18.64
2022-10-01T12:09:41.967Z,18.58
2022-10-01T12:10:42.029Z,18.52
2022-10-01T12:11:42.097Z,18.31
2022-10-01T12:12:42.100Z,18.27
2022-10-01T12:13:42.140Z,18.36
2022-10-01T12:14:42.120Z,18.39
2022-10-01T12:15:42.200Z,18.02
2022-10-01T12:16:42.330Z,17.79
2022-10-01T12:17:42.225Z,17.50
2022-10-01T12:18:42.283Z,17.56
2022-10-01T12:19:42.332Z,17.39
2022-10-01T12:20:42.363Z,17.37
2022-10-01T12:21:42.446Z,17.37
2022-10-01T12:22:42.484Z,17.37
2022-10-01T12:23:42.533Z,17.65
2022-10-01T12:24:42.586Z,18.18
2022-10-01T12:25:42.608Z,18.67
2022-10-01T12:26:42.635Z,18.81
2022-10-01T12:27:42.646Z,18.66
2022-10-01T12:28:42.677Z,18.48
2022-10-01T12:29:42.709Z,18.51
2022-10-01T12:30:42.746Z,19.17
2022-10-01T12:31:42.858Z,18.97
2022-10-01T12:32:42.818Z,18.94
2022-10-01T12:33:42.871Z,19.04
2022-10-01T12:34:42.856Z,18.92
2022-10-01T12:35:42.889Z,18.28
2022-10-01T12:36:42.939Z,18.03
2022-10-01T12:37:42.960Z,17.56
2022-10-01T12:38:42.940Z,17.63
2022-10-01T12:39:42.961Z,17.82
2022-10-01T12:40:42.952Z,17.88
2022-10-01T12:41:42.991Z,17.87
2022-10-01T12:42:43.071Z,17.79
2022-10-01T12:43:43.073Z,17.59
2022-10-01T12:44:44.430Z,17.47
2022-10-01T12:45:43.082Z,17.68
2022-10-01T12:46:43.196Z,18.34
2022-10-01T12:47:43.176Z,18.96
2022-10-01T12:48:44.166Z,19.23
2022-10-01T12:49:43.215Z,19.39
2022-10-01T12:50:43.325Z,19.70
2022-10-01T12:51:43.336Z,20.11
2022-10-01T12:52:43.325Z,20.37
2022-10-01T12:53:43.397Z,19.59
2022-10-01T12:54:43.409Z,19.57
2022-10-01T12:55:43.607Z,19.01
2022-10-01T12:56:44.405Z,18.68
2022-10-01T12:57:43.517Z,19.34